createdAt,value
2019-04-22T00:01:36.526Z,98125.82
2019-04-22T00:04:11.070Z,98125.30
2019-04-22T00:07:03.321Z,98124.46
2019-04-22T00:09:38.870Z,98124.11
2019-04-22T00:12:13.767Z,98121.88
2019-04-22T00:14:35.339Z,98116.82
2019-04-22T00:17:20.005Z,98116.41
2019-04-22T00:19:45.694Z,98110.94
2019-04-22T00:22:17.914Z,98105.19
2019-04-22T00:24:44.819Z,98101.91
2019-04-22T00:27:20.209Z,98105.64
2019-04-22T00:30:00.007Z,98099.80
2019-04-22T00:32:18.180Z,98095.69
2019-04-22T00:34:53.714Z,98096.41
2019-04-22T00:37:28.620Z,98092.39
2019-04-22T00:40:17.697Z,98092.64
2019-04-22T00:42:29.244Z,98090.08
2019-04-22T00:45:03.283Z,98087.17
2019-04-22T00:47:36.458Z,98081.92
2019-04-22T00:50:17.472Z,98085.30
2019-04-22T00:52:34.294Z,98087.70
2019-04-22T00:55:05.540Z,98083.64
2019-04-22T00:57:35.543Z,98077.40
2019-04-22T01:00:05.552Z,98079.61
2019-04-22T01:02:41.861Z,98077.59
2019-04-22T01:05:07.671Z,98074.75
2019-04-22T01:07:36.898Z,98074.08
2019-04-22T01:10:12.931Z,98075.72
2019-04-22T01:12:44.070Z,98071.02
2019-04-22T01:15:19.574Z,98069.82
2019-04-22T01:17:49.473Z,98062.98
2019-04-22T01:20:39.049Z,98061.11
2019-04-22T01:22:46.084Z,98055.98
2019-04-22T01:25:17.655Z,98054.42
2019-04-22T01:27:41.805Z,98055.50
2019-04-22T01:30:10.961Z,98047.70
2019-04-22T01:32:34.987Z,98047.77
2019-04-22T01:35:14.309Z,98041.51
2019-04-22T01:37:52.032Z,98036.48
2019-04-22T01:40:32.898Z,98038.86
2019-04-22T01:43:05.492Z,98042.97
2019-04-22T01:45:31.358Z,98038.53
2019-04-22T01:48:05.436Z,98035.63
2019-04-22T01:50:32.718Z,98036.22
2019-04-22T01:53:08.609Z,98029.67
2019-04-22T01:55:39.124Z,98033.95
2019-04-22T01:58:08.473Z,98033.27
2019-04-22T02:00:40.259Z,98034.13
2019-04-22T02:03:12.701Z,98032.70
2019-04-22T02:05:44.089Z,98029.34
2019-04-22T02:08:28.379Z,98028.30
2019-04-22T02:10:49.373Z,98032.11
2019-04-22T02:13:15.667Z,98025.34
2019-04-22T02:15:52.738Z,98026.74
2019-04-22T02:18:23.371Z,98019.17
2019-04-22T02:20:48.502Z,98019.56
2019-04-22T02:23:45.170Z,98021.19
2019-04-22T02:44:02.086Z,98005.46
2019-04-22T02:46:45.114Z,97992.72
2019-04-22T02:49:11.715Z,97997.97
2019-04-22T03:04:10.958Z,97983.71
2019-04-22T03:09:05.422Z,97977.09
2019-04-22T03:11:34.097Z,97971.58
2019-04-22T03:14:08.716Z,97970.70
2019-04-22T03:16:40.557Z,97967.96
2019-04-22T03:21:34.302Z,97964.58
2019-04-22T03:24:17.551Z,97954.55
2019-04-22T03:29:04.186Z,97949.52
2019-04-22T03:42:05.701Z,97937.20
2019-04-22T03:47:11.625Z,97942.82
2019-04-22T03:54:40.389Z,97931.70
2019-04-22T03:57:33.753Z,97930.41
2019-04-22T04:02:16.220Z,97922.16
2019-04-22T04:07:26.912Z,97930.20
2019-04-22T04:09:54.091Z,97920.86
2019-04-22T04:15:07.470Z,97917.98
2019-04-22T04:22:30.440Z,97919.50
2019-04-22T04:25:25.121Z,97915.54
2019-04-22T04:27:49.014Z,97914.97
2019-04-22T04:30:05.532Z,97907.73
2019-04-22T04:32:36.691Z,97902.75
2019-04-22T04:35:12.790Z,97903.75
2019-04-22T04:37:42.607Z,97896.42
2019-04-22T04:40:05.141Z,97892.77
2019-04-22T04:47:54.531Z,97884.36
2019-04-22T04:50:16.030Z,97888.95
2019-04-22T04:52:50.449Z,97889.11
2019-04-22T04:55:12.291Z,97882.77
2019-04-22T05:00:32.641Z,97884.63
2019-04-22T05:07:40.918Z,97882.90
2019-04-22T05:10:26.509Z,97880.81
2019-04-22T05:15:20.484Z,97873.01
2019-04-22T05:17:55.127Z,97872.80
2019-04-22T05:20:33.660Z,97881.55
2019-04-22T05:22:39.938Z,97879.92
2019-04-22T05:25:15.076Z,97878.05
2019-04-22T05:30:23.422Z,97871.20
2019-04-22T05:32:44.576Z,97874.08
2019-04-22T05:35:14.350Z,97869.70
2019-04-22T05:37:50.297Z,97870.77
2019-04-22T05:40:20.550Z,97873.15
2019-04-22T05:42:54.621Z,97869.73
2019-04-22T05:45:23.125Z,97874.85
2019-04-22T05:48:01.224Z,97872.34
2019-04-22T05:50:21.818Z,97873.64
2019-04-22T05:52:57.048Z,97860.23
2019-04-22T05:57:59.141Z,97855.48
2019-04-22T06:01:01.918Z,97849.28
2019-04-22T06:05:38.551Z,97836.45
2019-04-22T06:08:13.263Z,97838.52
2019-04-22T06:10:45.635Z,97838.34
2019-04-22T06:13:06.563Z,97830.63
2019-04-22T06:15:37.290Z,97835.17
2019-04-22T06:18:22.588Z,97839.77
2019-04-22T06:21:03.705Z,97839.24
2019-04-22T06:23:25.664Z,97831.90
2019-04-22T06:26:06.733Z,97833.33
2019-04-22T06:28:44.080Z,97825.83
2019-04-22T06:33:27.403Z,97823.76
2019-04-22T06:41:04.530Z,97817.73
2019-04-22T06:43:35.029Z,97810.19
2019-04-22T06:46:00.797Z,97803.78
2019-04-22T06:48:49.163Z,97810.75
2019-04-22T06:51:09.461Z,97808.47
2019-04-22T06:53:37.297Z,97807.46
2019-04-22T06:56:04.536Z,97798.04
2019-04-22T06:58:44.285Z,97796.63
2019-04-22T07:01:22.450Z,97801.15
2019-04-22T07:06:13.123Z,97793.48
2019-04-22T07:11:06.102Z,97779.91
2019-04-22T07:14:01.570Z,97783.30
2019-04-22T07:16:19.549Z,97780.14
2019-04-22T07:18:48.699Z,97772.66
2019-04-22T07:21:19.738Z,97776.77
2019-04-22T07:24:03.184Z,97768.84
2019-04-22T07:26:21.648Z,97773.33
2019-04-22T07:28:49.142Z,97763.44
2019-04-22T07:31:20.618Z,97767.23
2019-04-22T07:34:02.364Z,97757.41
2019-04-22T07:38:57.824Z,97761.30
2019-04-22T07:41:30.170Z,97753.71
2019-04-22T07:46:33.742Z,97757.52
2019-04-22T07:49:02.367Z,97755.11
2019-04-22T07:51:33.298Z,97748.27
2019-04-22T07:54:01.789Z,97739.23
2019-04-22T07:56:42.068Z,97737.90
2019-04-22T07:59:13.996Z,97739.29
2019-04-22T08:01:38.613Z,97728.97
2019-04-22T08:04:16.004Z,97719.59
2019-04-22T08:06:46.371Z,97721.63
2019-04-22T08:09:13.934Z,97717.19
2019-04-22T08:14:14.747Z,97714.24
2019-04-22T08:21:45.464Z,97700.81
2019-04-22T08:24:17.860Z,97703.23
2019-04-22T08:27:04.834Z,97694.64
2019-04-22T08:29:28.211Z,97702.03
2019-04-22T08:31:58.053Z,97689.58
2019-04-22T08:39:35.870Z,97693.41
2019-04-22T08:41:55.517Z,97691.55
2019-04-22T08:44:40.176Z,97677.56
2019-04-22T08:47:08.662Z,97676.05
2019-04-22T08:49:31.990Z,97674.63
2019-04-22T08:52:01.012Z,97674.58
2019-04-22T08:54:40.993Z,97666.66
2019-04-22T08:57:07.212Z,97661.45
2019-04-22T08:59:31.250Z,97654.53
2019-04-22T09:02:16.349Z,97656.41
2019-04-22T09:04:37.012Z,97648.88
2019-04-22T09:07:21.189Z,97641.20
2019-04-22T09:09:44.766Z,97644.33
2019-04-22T09:12:14.729Z,97647.91
2019-04-22T09:14:42.835Z,97636.79
2019-04-22T09:17:17.626Z,97630.44
2019-04-22T09:19:40.395Z,97629.78
2019-04-22T09:22:26.217Z,97624.88
2019-04-22T09:24:48.611Z,97616.70
2019-04-22T09:27:31.791Z,97622.92
2019-04-22T09:32:19.074Z,97600.66
2019-04-22T09:34:53.229Z,97600.51
2019-04-22T09:37:27.192Z,97606.39
2019-04-22T09:39:59.668Z,97594.66
2019-04-22T09:42:24.094Z,97596.17
2019-04-22T09:44:53.787Z,97589.47
2019-04-22T09:47:26.330Z,97587.30
2019-04-22T09:52:28.078Z,97595.25
2019-04-22T09:55:07.497Z,97583.95
2019-04-22T10:00:02.793Z,97569.59
2019-04-22T10:05:07.560Z,97571.64
2019-04-22T10:07:52.447Z,97585.86
2019-04-22T10:10:17.077Z,97563.84
2019-04-22T10:15:10.156Z,97546.12
2019-04-22T10:17:43.983Z,97568.47
2019-04-22T10:20:10.209Z,97547.84
2019-04-22T10:22:57.714Z,97556.87
2019-04-22T10:25:21.600Z,97545.55
2019-04-22T10:27:51.981Z,97550.80
2019-04-22T10:30:29.491Z,97538.23
2019-04-22T10:32:50.844Z,97533.75
2019-04-22T10:35:17.122Z,97532.47
2019-04-22T10:37:43.875Z,97529.80
2019-04-22T10:40:15.900Z,97528.83
2019-04-22T10:42:47.196Z,97527.11
2019-04-22T10:45:18.384Z,97519.41
2019-04-22T10:47:48.085Z,97515.87
2019-04-22T10:50:18.671Z,97515.39
2019-04-22T10:52:48.129Z,97503.98
2019-04-22T10:55:19.109Z,97498.42
2019-04-22T10:57:48.793Z,97503.33
2019-04-22T11:00:19.775Z,97494.88
2019-04-22T11:02:49.737Z,97487.63
2019-04-22T11:05:19.969Z,97496.16
2019-04-22T11:07:56.763Z,97497.46
2019-04-22T11:10:36.984Z,97475.20
2019-04-22T11:12:51.822Z,97477.92
2019-04-22T11:15:22.445Z,97468.73
2019-04-22T11:17:53.456Z,97478.59
2019-04-22T11:20:23.814Z,97469.30
2019-04-22T11:22:53.456Z,97467.94
2019-04-22T11:25:23.637Z,97478.74
2019-04-22T11:27:53.705Z,97469.86
2019-04-22T11:30:25.728Z,97477.53
2019-04-22T11:32:55.964Z,97475.25
2019-04-22T11:35:25.860Z,97462.98
2019-04-22T11:37:56.543Z,97470.80
2019-04-22T11:40:34.563Z,97460.81
2019-04-22T11:42:59.656Z,97454.75
2019-04-22T11:45:29.102Z,97447.37
2019-04-22T11:47:59.547Z,97439.60
2019-04-22T11:50:30.194Z,97443.34
2019-04-22T11:53:00.775Z,97432.13
2019-04-22T11:55:30.908Z,97437.92
2019-04-22T11:58:01.043Z,97432.23
2019-04-22T12:00:35.100Z,97434.90
2019-04-22T12:03:05.283Z,97423.98
2019-04-22T12:05:34.822Z,97424.74
2019-04-22T12:08:04.979Z,97434.66
2019-04-22T12:10:42.700Z,97431.36
2019-04-22T12:13:06.397Z,97423.92
2019-04-22T12:15:37.128Z,97423.70
2019-04-22T12:18:07.219Z,97423.28
2019-04-22T12:20:37.277Z,97431.20
2019-04-22T12:23:07.373Z,97428.31
2019-04-22T12:25:46.430Z,97417.86
2019-04-22T12:28:09.083Z,97412.41
2019-04-22T12:30:39.433Z,97407.68
2019-04-22T12:33:11.625Z,97400.12
2019-04-22T12:35:40.049Z,97396.95
2019-04-22T12:38:12.357Z,97386.70
2019-04-22T12:40:47.427Z,97387.45
2019-04-22T12:43:14.035Z,97407.64
2019-04-22T12:45:44.621Z,97394.38
2019-04-22T12:48:15.058Z,97392.92
2019-04-22T12:50:48.044Z,97391.56
2019-04-22T12:53:19.771Z,97391.75
2019-04-22T12:55:48.089Z,97394.07
2019-04-22T12:58:18.144Z,97379.05
2019-04-22T13:00:48.403Z,97376.05
2019-04-22T13:03:18.266Z,97375.02
2019-04-22T13:05:49.326Z,97371.47
2019-04-22T13:08:19.991Z,97370.11
2019-04-22T13:10:58.716Z,97365.38
2019-04-22T13:13:20.836Z,97356.13
2019-04-22T13:15:51.031Z,97354.95
2019-04-22T13:18:30.818Z,97368.03
2019-04-22T13:20:52.849Z,97349.94
2019-04-22T13:23:22.274Z,97348.71
2019-04-22T13:25:52.640Z,97345.80
2019-04-22T13:28:23.017Z,97341.39
2019-04-22T13:30:52.830Z,97335.79
2019-04-22T13:33:23.185Z,97332.95
2019-04-22T13:35:54.223Z,97322.61
2019-04-22T13:38:25.003Z,97325.18
2019-04-22T13:41:07.179Z,97314.77
2019-04-22T13:43:26.753Z,97324.08
2019-04-22T13:45:56.418Z,97314.71
2019-04-22T13:48:46.267Z,97313.47
2019-04-22T13:54:37.127Z,97301.05
2019-04-22T13:56:18.838Z,97302.14
2019-04-22T13:58:46.142Z,97290.56
2019-04-22T14:01:04.842Z,97303.83
2019-04-22T14:03:52.217Z,97291.87
2019-04-22T14:06:22.667Z,97291.62
2019-04-22T14:08:53.419Z,97288.28
2019-04-22T14:11:34.113Z,97284.45
2019-04-22T14:13:54.159Z,97286.88
2019-04-22T14:16:24.807Z,97281.47
2019-04-22T14:18:54.224Z,97262.36
2019-04-22T14:21:24.711Z,97261.25
2019-04-22T14:23:54.319Z,97256.42
2019-04-22T14:26:25.053Z,97261.98
2019-04-22T14:28:55.695Z,97255.37
2019-04-22T14:31:26.539Z,97254.30
2019-04-22T14:34:01.032Z,97248.11
2019-04-22T14:36:27.593Z,97247.23
2019-04-22T14:38:57.777Z,97249.06
2019-04-22T14:41:42.623Z,97239.24
2019-04-22T14:44:59.398Z,97230.35
2019-04-22T14:47:02.162Z,97230.76
2019-04-22T14:49:23.960Z,97229.62
2019-04-22T14:51:58.763Z,97225.94
2019-04-22T14:54:21.309Z,97216.00
2019-04-22T14:56:34.227Z,97210.28
2019-04-22T14:59:05.096Z,97206.98
2019-04-22T15:01:35.338Z,97211.63
2019-04-22T15:04:05.743Z,97196.16
2019-04-22T15:06:36.138Z,97211.06
2019-04-22T15:09:08.130Z,97209.39
2019-04-22T15:11:51.019Z,97199.94
2019-04-22T15:14:09.659Z,97196.80
2019-04-22T15:16:41.005Z,97198.41
2019-04-22T15:19:12.052Z,97193.50
2019-04-22T15:21:42.981Z,97188.91
2019-04-22T15:24:25.271Z,97186.28
2019-04-22T15:26:56.664Z,97186.34
2019-04-22T15:29:27.613Z,97181.25
2019-04-22T15:31:57.663Z,97185.68
2019-04-22T15:34:28.287Z,97183.28
2019-04-22T15:36:58.107Z,97184.03
2019-04-22T15:39:29.142Z,97179.73
2019-04-22T15:42:09.760Z,97167.27
2019-04-22T15:44:30.380Z,97171.63
2019-04-22T15:47:00.941Z,97164.98
2019-04-22T15:49:31.898Z,97168.34
2019-04-22T15:52:03.001Z,97168.47
2019-04-22T15:54:34.006Z,97163.19
2019-04-22T15:57:04.736Z,97168.23
2019-04-22T15:59:49.439Z,97160.73
2019-04-22T16:02:07.764Z,97156.41
2019-04-22T16:04:36.803Z,97163.79
2019-04-22T16:07:07.187Z,97159.80
2019-04-22T16:09:37.657Z,97156.38
2019-04-22T16:12:16.234Z,97161.15
2019-04-22T16:14:43.727Z,97152.84
2019-04-22T16:17:10.571Z,97151.81
2019-04-22T16:19:41.131Z,97147.14
2019-04-22T16:22:16.894Z,97145.30
2019-04-22T16:24:56.380Z,97141.84
2019-04-22T16:27:27.520Z,97143.06
2019-04-22T16:29:57.227Z,97140.39
2019-04-22T16:32:27.738Z,97134.08
2019-04-22T16:34:58.872Z,97143.17
2019-04-22T16:37:28.620Z,97141.06
2019-04-22T16:39:58.904Z,97130.33
2019-04-22T16:42:37.739Z,97138.43
2019-04-22T16:44:59.695Z,97138.33
2019-04-22T16:47:29.132Z,97130.71
2019-04-22T16:49:59.615Z,97135.81
2019-04-22T16:52:30.266Z,97131.98
2019-04-22T16:55:01.003Z,97132.27
2019-04-22T16:57:30.414Z,97130.91
2019-04-22T17:00:00.452Z,97134.91
2019-04-22T17:02:33.176Z,97127.19
2019-04-22T17:05:05.259Z,97132.85
2019-04-22T17:07:36.056Z,97129.20
2019-04-22T17:10:17.780Z,97131.47
2019-04-22T17:12:53.926Z,97133.30
2019-04-22T17:15:18.909Z,97132.23
2019-04-22T17:17:49.495Z,97131.19
2019-04-22T17:20:19.176Z,97122.94
2019-04-22T17:22:49.434Z,97118.20
2019-04-22T17:25:20.375Z,97117.25
2019-04-22T17:27:49.989Z,97113.29
2019-04-22T17:30:20.333Z,97112.52
2019-04-22T17:32:50.436Z,97115.00
2019-04-22T17:35:20.367Z,97121.23
2019-04-22T17:37:55.955Z,97112.37
2019-04-22T17:40:39.422Z,97112.54
2019-04-22T17:43:16.915Z,97114.10
2019-04-22T17:45:44.979Z,97113.14
2019-04-22T17:48:43.122Z,97118.77
2019-04-22T17:51:16.177Z,97115.13
2019-04-22T17:53:46.939Z,97110.02
2019-04-22T17:56:15.660Z,97108.08
2019-04-22T17:58:47.699Z,97106.78
2019-04-22T18:01:20.698Z,97105.73
2019-04-22T18:03:33.794Z,97113.17
2019-04-22T18:06:03.374Z,97118.57
2019-04-22T18:08:45.221Z,97121.88
2019-04-22T18:11:31.909Z,97117.63
2019-04-22T18:13:51.660Z,97118.22
2019-04-22T18:16:25.715Z,97112.02
2019-04-22T18:18:53.280Z,97116.16
2019-04-22T18:21:23.202Z,97114.57
2019-04-22T18:23:52.376Z,97113.48
2019-04-22T18:26:26.186Z,97114.95
2019-04-22T18:29:02.156Z,97113.95
2019-04-22T18:31:22.885Z,97115.19
2019-04-22T18:33:54.538Z,97113.22
2019-04-22T18:36:29.213Z,97107.80
2019-04-22T18:39:11.456Z,97112.89
2019-04-22T18:41:34.148Z,97111.31
2019-04-22T18:44:09.680Z,97111.28
2019-04-22T18:46:36.871Z,97113.23
2019-04-22T18:49:08.463Z,97110.42
2019-04-22T18:51:46.289Z,97112.82
2019-04-22T18:54:22.690Z,97109.05
2019-04-22T18:56:57.890Z,97110.14
2019-04-22T18:59:17.427Z,97110.59
2019-04-22T19:01:41.925Z,97112.54
2019-04-22T19:04:19.438Z,97110.77
2019-04-22T19:07:01.768Z,97117.22
2019-04-22T19:09:43.855Z,97109.77
2019-04-22T19:12:28.101Z,97108.96
2019-04-22T19:14:45.538Z,97112.73
2019-04-22T19:17:21.645Z,97114.16
2019-04-22T19:19:43.611Z,97109.99
2019-04-22T19:22:07.665Z,97109.99
2019-04-22T19:24:39.558Z,97101.23
2019-04-22T19:27:16.084Z,97116.61
2019-04-22T19:29:51.350Z,97116.44
2019-04-22T19:32:18.462Z,97110.16
2019-04-22T19:34:47.700Z,97110.08
2019-04-22T19:37:20.032Z,97110.40
2019-04-22T19:40:00.626Z,97109.01
2019-04-22T19:42:31.022Z,97101.11
2019-04-22T19:44:55.008Z,97101.97
2019-04-22T19:50:03.922Z,97094.88
2019-04-22T19:52:28.725Z,97091.95
2019-04-22T19:55:04.821Z,97085.12
2019-04-22T19:57:26.476Z,97082.13
2019-04-22T20:00:01.708Z,97074.81
2019-04-22T20:02:55.267Z,97072.96
2019-04-22T20:05:43.683Z,97064.38
2019-04-22T20:08:14.302Z,97063.83
2019-04-22T20:10:44.038Z,97055.42
2019-04-22T20:13:20.841Z,97053.84
2019-04-22T20:15:37.481Z,97050.94
2019-04-22T20:18:27.007Z,97052.42
2019-04-22T20:20:54.354Z,97052.88
2019-04-22T20:23:17.203Z,97056.89
2019-04-22T20:25:44.532Z,97049.77
2019-04-22T20:28:21.115Z,97056.98
2019-04-22T20:30:50.555Z,97050.45
2019-04-22T20:33:29.158Z,97048.91
2019-04-22T20:35:58.235Z,97046.88
2019-04-22T20:38:27.636Z,97039.25
2019-04-22T20:40:55.164Z,97034.13
2019-04-22T20:43:35.711Z,97026.59
2019-04-22T20:46:02.988Z,97018.20
2019-04-22T20:48:28.554Z,97017.56
2019-04-22T20:50:59.342Z,97019.13
2019-04-22T20:53:36.748Z,97009.77
2019-04-22T20:56:04.206Z,97014.48
2019-04-22T20:58:34.302Z,97000.59
2019-04-22T21:00:55.573Z,97003.34
2019-04-22T21:03:27.321Z,97007.55
2019-04-22T21:06:00.730Z,96999.72
2019-04-22T21:08:42.236Z,96999.95
2019-04-22T21:11:04.142Z,96998.93
2019-04-22T21:13:34.912Z,96986.38
2019-04-22T21:16:18.373Z,96990.66
2019-04-22T21:18:36.347Z,96993.84
2019-04-22T21:21:20.361Z,96988.19
2019-04-22T21:23:39.428Z,96994.55
2019-04-22T21:26:13.812Z,96984.06
2019-04-22T21:28:47.747Z,96981.64
2019-04-22T21:31:23.328Z,96974.91
2019-04-22T21:33:50.246Z,96978.88
2019-04-22T21:36:24.991Z,96975.53
2019-04-22T21:38:51.998Z,96977.00
2019-04-22T21:41:23.122Z,96978.66
2019-04-22T21:43:53.646Z,96979.81
2019-04-22T21:46:28.936Z,96973.29
2019-04-22T21:49:00.165Z,96975.20
2019-04-22T21:51:34.854Z,96975.55
2019-04-22T21:54:08.524Z,96976.34
2019-04-22T21:56:41.004Z,96972.34
2019-04-22T21:59:11.088Z,96977.58
2019-04-22T22:01:51.141Z,96972.94
2019-04-22T22:04:12.683Z,96969.95
2019-04-22T22:06:37.358Z,96968.30
2019-04-22T22:09:15.295Z,96963.70
2019-04-22T22:11:46.771Z,96962.07
2019-04-22T22:14:20.438Z,96955.88
2019-04-22T22:16:44.672Z,96950.85
2019-04-22T22:19:14.477Z,96951.13
2019-04-22T22:24:22.912Z,96950.84
2019-04-22T22:26:55.958Z,96959.58
2019-04-22T22:29:37.976Z,96953.18
2019-04-22T22:32:02.741Z,96938.38
2019-04-22T22:34:43.195Z,96945.17
2019-04-22T22:36:51.616Z,96947.13
2019-04-22T22:39:23.630Z,96951.04
2019-04-22T22:41:41.850Z,96942.39
2019-04-22T22:44:21.103Z,96932.80
2019-04-22T22:47:00.586Z,96940.89
2019-04-22T22:49:36.197Z,96940.25
2019-04-22T22:52:31.260Z,96930.23
2019-04-22T22:54:34.516Z,96937.16
2019-04-22T22:57:17.689Z,96928.20
2019-04-22T22:59:38.635Z,96924.52
2019-04-22T23:02:07.838Z,96923.40
2019-04-22T23:05:00.421Z,96922.33
2019-04-22T23:07:17.169Z,96920.44
2019-04-22T23:09:47.132Z,96922.37
2019-04-22T23:12:25.163Z,96916.06
2019-04-22T23:14:43.834Z,96916.44
2019-04-22T23:17:04.121Z,96909.05
2019-04-22T23:19:28.019Z,96908.27
2019-04-22T23:22:05.349Z,96905.69
2019-04-22T23:24:48.255Z,96906.00
2019-04-22T23:27:29.009Z,96907.13
2019-04-22T23:30:09.499Z,96905.91
2019-04-22T23:32:42.651Z,96904.49
2019-04-22T23:35:24.226Z,96898.42
2019-04-22T23:38:03.559Z,96894.08
2019-04-22T23:40:34.359Z,96896.52
2019-04-22T23:43:09.489Z,96898.32
2019-04-22T23:45:41.710Z,96898.37
2019-04-22T23:48:06.797Z,96897.34
2019-04-22T23:50:40.361Z,96893.39
2019-04-22T23:53:42.577Z,96886.83
2019-04-22T23:56:03.187Z,96882.70
2019-04-22T23:58:49.228Z,96881.75
